Time;durP1;ratioP1;P1;durP2;ratioP2;P2;SDS_P1;SDS_P2;PMS_P1;PMS_P2;Temp;Humidity;BMP_temperature;BMP_pressure;BME280_temperature;BME280_humidity;BME280_pressure;Samples;Min_cycle;Max_cycle;Signal;HPM_P1;HPM_P2
2023/11/03 00:02:10;;;;;;;9.70;1.75;;;10.90;99.90;;;10.97;69.31;96993.81;5077993;28;20104;-81
2023/11/03 00:04:37;;;;;;;6.57;1.27;;;10.90;99.90;;;11.00;69.43;96992.44;5060684;28;20063;-81
2023/11/03 00:07:08;;;;;;;8.82;1.48;;;10.80;99.90;;;11.05;69.25;96987.78;5077546;28;20491;-81
2023/11/03 00:09:37;;;;;;;8.88;1.70;;;10.90;99.90;;;10.93;69.11;97003.50;5077976;28;20419;-81
2023/11/03 00:12:06;;;;;;;5.30;1.30;;;10.80;99.90;;;11.11;68.85;97001.00;5061365;28;20047;-81
2023/11/03 00:14:34;;;;;;;5.03;1.40;;;10.90;99.90;;;11.20;68.68;97002.66;5068108;28;20045;-81
2023/11/03 00:17:01;;;;;;;9.10;1.65;;;11.00;99.90;;;11.27;68.61;97019.06;5051504;28;20131;-81
2023/11/03 00:19:30;;;;;;;5.05;1.25;;;11.00;99.90;;;11.05;67.49;97001.09;5077609;28;20052;-81
2023/11/03 00:21:58;;;;;;;4.80;1.40;;;10.90;99.90;;;11.02;67.97;97022.25;5076897;28;20048;-81
2023/11/03 00:24:27;;;;;;;5.45;1.52;;;10.90;99.90;;;11.01;68.23;97016.13;5076952;28;20045;-81
2023/11/03 00:26:55;;;;;;;7.95;1.30;;;10.90;99.90;;;11.07;68.64;97025.59;5078836;28;20045;-81
2023/11/03 00:29:22;;;;;;;5.03;1.20;;;10.90;99.90;;;11.04;67.96;97017.41;5089732;28;20080;-81
2023/11/03 00:31:51;;;;;;;7.10;1.10;;;10.90;99.90;;;11.03;67.69;97019.28;5056803;28;20037;-81
2023/11/03 00:34:19;;;;;;;7.63;1.33;;;10.90;99.90;;;11.13;67.54;97018.28;5077556;28;20507;-81
2023/11/03 00:36:47;;;;;;;6.13;1.20;;;11.00;99.90;;;11.20;66.66;97024.00;5078937;28;20484;-81
2023/11/03 00:39:15;;;;;;;6.72;1.20;;;11.00;99.90;;;11.11;65.71;97025.00;5094340;28;20063;-82
2023/11/03 00:41:46;;;;;;;4.35;1.00;;;11.00;99.90;;;11.18;65.88;97025.41;5077278;28;20059;-81
2023/11/03 00:44:13;;;;;;;4.85;1.33;;;11.00;99.90;;;11.03;64.49;97026.50;5077427;28;20098;-82
2023/11/03 00:46:42;;;;;;;4.78;1.20;;;11.00;99.90;;;10.87;64.85;97030.56;5069695;28;20056;-81
2023/11/03 00:49:12;;;;;;;4.32;1.10;;;10.90;99.90;;;10.88;65.96;97034.78;5061174;28;20052;-81
2023/11/03 00:51:40;;;;;;;4.90;1.20;;;10.90;99.90;;;10.98;65.03;97035.41;5063448;28;20500;-81
2023/11/03 00:54:09;;;;;;;6.63;1.00;;;10.90;99.90;;;11.05;65.84;97030.44;5062439;28;20060;-81
2023/11/03 00:56:37;;;;;;;3.95;1.00;;;10.90;99.90;;;10.98;64.82;97024.72;5060702;28;20044;-81
2023/11/03 00:59:07;;;;;;;6.28;1.27;;;10.90;99.90;;;10.81;64.68;97036.00;5076931;28;20114;-81
2023/11/03 01:01:35;;;;;;;5.10;1.20;;;10.80;99.90;;;10.97;64.95;97044.47;5049416;28;20111;-81
2023/11/03 01:04:03;;;;;;;4.63;0.98;;;10.90;99.90;;;10.91;65.41;97045.66;5082440;28;20044;-81
2023/11/03 01:06:30;;;;;;;6.30;1.40;;;10.90;99.90;;;10.97;64.73;97047.13;5083695;28;20094;-81
2023/11/03 01:08:58;;;;;;;4.38;1.00;;;10.90;99.90;;;10.92;64.47;97041.13;5083711;28;20048;-81
2023/11/03 01:11:26;;;;;;;4.80;1.40;;;10.90;99.90;;;10.94;64.29;97052.28;5031843;28;20059;-81
2023/11/03 01:13:54;;;;;;;6.55;1.40;;;10.90;99.90;;;11.00;64.78;97051.09;5083899;28;20044;-81
2023/11/03 01:16:23;;;;;;;5.70;1.05;;;10.90;99.90;;;11.05;64.51;97051.78;5084594;28;20044;-81
2023/11/03 01:18:51;;;;;;;5.13;0.90;;;11.00;99.90;;;11.03;64.31;97056.63;5098302;28;20579;-81
2023/11/03 01:21:18;;;;;;;4.97;1.02;;;10.90;99.90;;;11.11;64.74;97051.66;5082878;28;20048;-81
2023/11/03 01:23:48;;;;;;;4.00;1.10;;;11.00;99.90;;;11.03;63.49;97063.84;5080831;28;20041;-81
2023/11/03 01:26:17;;;;;;;7.45;1.30;;;11.00;99.90;;;10.94;63.52;97054.97;5079995;28;20047;-81
2023/11/03 01:28:45;;;;;;;6.10;1.13;;;10.90;99.90;;;10.91;63.36;97052.88;5099034;28;20052;-81
2023/11/03 01:31:15;;;;;;;5.40;1.02;;;10.90;99.90;;;10.84;63.18;97053.28;5064934;28;20053;-81
2023/11/03 01:33:46;;;;;;;5.30;1.38;;;10.90;99.90;;;10.87;64.11;97057.22;5082882;28;20040;-81
2023/11/03 01:36:13;;;;;;;5.60;1.05;;;10.90;99.90;;;10.86;63.86;97055.63;5099017;28;20045;-81
2023/11/03 01:38:41;;;;;;;4.93;1.20;;;10.90;99.90;;;10.75;63.96;97060.38;5079563;28;20041;-81
2023/11/03 01:41:09;;;;;;;10.35;1.38;;;10.80;99.90;;;10.84;64.40;97061.28;5080843;28;20049;-81
2023/11/03 01:43:37;;;;;;;4.68;1.20;;;10.90;99.90;;;10.96;63.75;97066.88;5047863;28;20045;-81
2023/11/03 01:46:05;;;;;;;4.15;1.10;;;10.90;99.90;;;11.02;63.13;97062.25;5083512;28;20060;-81
2023/11/03 01:48:33;;;;;;;4.43;1.05;;;11.00;99.90;;;11.00;62.78;97080.41;5048073;28;20435;-81
2023/11/03 01:51:04;;;;;;;5.38;1.10;;;10.90;99.90;;;10.99;63.25;97074.31;5049225;28;20051;-81
2023/11/03 01:53:33;;;;;;;4.55;1.02;;;10.90;99.90;;;11.07;63.13;97078.91;5097940;28;20045;-82
2023/11/03 01:56:01;;;;;;;4.95;1.20;;;11.00;99.90;;;10.99;62.77;97060.97;5084209;28;20080;-81
2023/11/03 01:58:29;;;;;;;6.93;1.23;;;10.90;99.90;;;10.92;63.17;97075.78;5080428;28;20094;-81
2023/11/03 02:00:59;;;;;;;5.38;1.30;;;10.90;99.90;;;10.99;63.11;97078.84;5084669;28;20070;-81
2023/11/03 02:03:27;;;;;;;20.55;1.70;;;10.90;99.90;;;10.93;62.66;97074.69;5066660;28;20052;-81
2023/11/03 02:05:55;;;;;;;6.40;1.38;;;10.90;99.90;;;10.86;62.44;97091.09;5081535;28;20044;-81
2023/11/03 02:08:24;;;;;;;3.13;0.95;;;10.90;99.90;;;10.86;62.86;97090.28;5081929;28;20048;-81
2023/11/03 02:10:53;;;;;;;8.70;1.20;;;10.90;99.90;;;10.95;63.72;97088.53;5081378;28;20052;-81
2023/11/03 02:13:21;;;;;;;4.32;1.20;;;10.90;99.90;;;11.04;62.89;97100.06;5061162;28;20091;-81
2023/11/03 02:15:50;;;;;;;5.32;1.20;;;11.00;99.90;;;10.89;62.39;97103.03;5061632;28;20053;-81
2023/11/03 02:18:17;;;;;;;5.63;1.08;;;10.90;99.90;;;10.99;62.57;97100.97;5062377;28;20049;-81
2023/11/03 02:20:45;;;;;;;8.18;1.25;;;10.90;99.90;;;10.90;62.74;97107.28;5078240;28;20131;-81
2023/11/03 02:23:14;;;;;;;4.75;1.10;;;10.90;99.90;;;10.93;62.74;97104.00;5065266;28;20045;-81
2023/11/03 02:25:41;;;;;;;6.68;1.10;;;10.90;99.90;;;10.96;62.74;97104.22;5082775;28;20044;-81
2023/11/03 02:28:09;;;;;;;4.30;1.00;;;10.90;99.90;;;10.93;62.49;97109.34;5068723;28;20053;-81
2023/11/03 02:30:36;;;;;;;8.95;1.38;;;10.90;99.90;;;10.81;62.29;97104.50;5044180;28;20045;-81
2023/11/03 02:33:04;;;;;;;5.45;1.27;;;10.90;99.90;;;10.79;62.79;97115.47;5062605;28;20045;-81
2023/11/03 02:35:32;;;;;;;11.88;1.00;;;10.90;99.90;;;10.77;62.98;97106.19;5060794;28;20116;-81
2023/11/03 02:37:59;;;;;;;6.63;1.00;;;10.90;99.90;;;10.80;63.14;97108.25;5061090;28;20041;-81
2023/11/03 02:40:28;;;;;;;6.18;1.00;;;10.90;99.90;;;10.90;63.31;97105.41;5060687;28;20067;-81
2023/11/03 02:42:55;;;;;;;5.78;1.42;;;10.90;99.90;;;10.95;63.58;97104.53;5060921;28;20055;-81
2023/11/03 02:45:23;;;;;;;4.40;1.30;;;10.90;99.90;;;10.95;62.93;97099.97;5061344;28;20069;-81
2023/11/03 02:47:51;;;;;;;6.03;1.00;;;10.90;99.90;;;10.97;63.28;97089.78;5073168;28;20040;-81
2023/11/03 02:50:18;;;;;;;4.93;1.10;;;10.90;99.90;;;10.91;62.80;97106.19;5096875;28;20055;-81
2023/11/03 02:52:45;;;;;;;4.20;1.00;;;10.90;99.90;;;10.85;62.36;97097.50;5097878;28;20547;-81
2023/11/03 02:55:13;;;;;;;3.47;0.95;;;10.80;99.90;;;10.89;62.85;97095.84;5060391;28;20052;-81
2023/11/03 02:57:42;;;;;;;4.82;1.10;;;10.90;99.90;;;10.89;62.98;97100.38;5070326;28;20079;-81
2023/11/03 03:00:12;;;;;;;5.13;1.10;;;10.80;99.90;;;10.92;62.63;97105.09;5060150;28;20053;-81
2023/11/03 03:02:40;;;;;;;7.47;1.40;;;10.90;99.90;;;10.96;62.78;97114.09;5044604;28;20052;-81
2023/11/03 03:05:10;;;;;;;5.68;1.13;;;10.90;99.90;;;10.94;62.74;97106.41;5043333;28;20571;-81
2023/11/03 03:07:39;;;;;;;8.50;1.80;;;10.90;99.90;;;10.80;62.61;97111.72;5060151;28;20056;-81
2023/11/03 03:10:09;;;;;;;4.88;1.05;;;10.80;99.90;;;10.77;63.02;97120.28;5059255;28;20049;-81
2023/11/03 03:12:36;;;;;;;3.95;1.00;;;10.80;99.90;;;10.77;62.87;97108.84;5060483;28;20072;-81
2023/11/03 03:15:07;;;;;;;3.65;1.13;;;10.80;99.90;;;10.85;62.97;97110.03;5073745;28;20033;-81
2023/11/03 03:17:34;;;;;;;3.28;0.93;;;10.80;99.90;;;10.89;62.68;97119.03;5080396;28;20063;-81
2023/11/03 03:20:01;;;;;;;4.10;1.05;;;10.80;99.90;;;10.91;63.12;97108.84;5064234;28;20064;-81
2023/11/03 03:22:29;;;;;;;2.92;1.00;;;10.90;99.90;;;10.91;63.05;97106.19;5080329;28;20056;-81
2023/11/03 03:24:56;;;;;;;4.22;1.02;;;10.80;99.90;;;10.88;62.83;97106.78;5095970;28;20044;-81
2023/11/03 03:27:24;;;;;;;3.65;1.02;;;10.80;99.90;;;10.85;63.40;97096.72;5079321;28;20045;-81
2023/11/03 03:29:51;;;;;;;3.58;1.02;;;10.80;99.90;;;10.69;63.01;97098.88;5079673;28;20503;-81
2023/11/03 03:32:20;;;;;;;3.35;1.00;;;10.70;99.90;;;10.63;63.60;97097.38;5080029;28;20066;-81
2023/11/03 03:34:48;;;;;;;3.13;0.98;;;10.70;99.90;;;10.78;63.62;97105.09;5062342;28;20094;-81
2023/11/03 03:37:15;;;;;;;3.95;1.08;;;10.80;99.90;;;10.78;63.14;97107.75;5080114;28;20070;-81
2023/11/03 03:39:44;;;;;;;4.60;1.10;;;10.70;99.90;;;10.78;63.26;97108.56;5082024;28;20044;-81
2023/11/03 03:42:11;;;;;;;9.30;1.55;;;10.70;99.90;;;10.79;62.91;97115.47;5096250;28;20047;-81
2023/11/03 03:44:40;;;;;;;5.97;1.15;;;10.70;99.90;;;10.82;63.32;97116.75;5080993;28;20449;-81
2023/11/03 03:47:08;;;;;;;5.03;1.10;;;10.70;99.90;;;10.84;62.62;97111.94;5080983;28;20431;-81
2023/11/03 03:49:37;;;;;;;6.20;1.30;;;10.70;99.90;;;10.73;63.51;97127.28;5085019;28;20041;-81
2023/11/03 03:52:06;;;;;;;8.77;1.40;;;10.70;99.90;;;10.85;63.49;97131.38;5061424;28;20091;-81
2023/11/03 03:54:34;;;;;;;4.57;1.25;;;10.70;99.90;;;10.81;63.16;97131.16;5069865;28;20064;-81
2023/11/03 03:57:02;;;;;;;6.68;1.40;;;10.70;99.90;;;10.87;63.45;97134.53;5078991;28;20510;-81
2023/11/03 03:59:30;;;;;;;7.15;1.35;;;10.70;99.90;;;10.83;63.04;97131.66;5080560;28;20094;-81
2023/11/03 04:01:57;;;;;;;6.13;1.25;;;10.70;99.90;;;10.85;63.15;97128.72;5046692;28;20141;-81
2023/11/03 04:04:25;;;;;;;6.70;1.10;;;10.70;99.90;;;10.77;62.96;97133.63;5095656;28;20041;-81
2023/11/03 04:06:54;;;;;;;6.82;1.55;;;10.70;99.90;;;10.78;63.35;97145.88;5075775;28;20404;-81
2023/11/03 04:09:21;;;;;;;6.88;1.08;;;10.70;99.90;;;10.76;62.65;97128.59;5062667;28;20484;-81
2023/11/03 04:11:49;;;;;;;4.13;1.25;;;10.70;99.90;;;10.61;63.52;97129.66;5042230;28;20041;-81
2023/11/03 04:14:16;;;;;;;5.63;1.23;;;10.60;99.90;;;10.65;63.28;97130.66;5071652;28;20052;-81
2023/11/03 04:16:43;;;;;;;5.47;1.40;;;10.60;99.90;;;10.61;63.38;97140.31;5078930;28;20052;-81
2023/11/03 04:19:11;;;;;;;5.18;1.23;;;10.60;99.90;;;10.57;63.83;97141.97;5078900;28;20078;-81
2023/11/03 04:21:38;;;;;;;8.38;1.13;;;10.60;99.90;;;10.62;63.75;97149.88;5083319;28;20048;-81
2023/11/03 04:24:09;;;;;;;7.88;1.67;;;10.60;99.90;;;10.73;63.99;97150.50;5065046;28;20490;-81
2023/11/03 04:26:39;;;;;;;6.30;1.40;;;10.60;99.90;;;10.62;63.06;97149.88;5063193;28;20393;-81
2023/11/03 04:29:07;;;;;;;9.57;1.17;;;10.60;99.90;;;10.61;63.79;97156.31;5086010;28;20458;-81
2023/11/03 04:31:35;;;;;;;6.05;1.75;;;10.60;99.90;;;10.62;63.43;97147.22;5065620;28;20470;-81
2023/11/03 04:34:02;;;;;;;7.40;1.45;;;10.60;99.90;;;10.66;63.64;97148.22;5068108;28;20067;-81
2023/11/03 04:36:30;;;;;;;8.27;1.35;;;10.60;99.90;;;10.65;63.79;97143.97;5085180;28;20052;-81
2023/11/03 04:38:58;;;;;;;7.38;1.42;;;10.40;99.90;;;10.68;64.14;97151.38;5079300;28;20409;-81
2023/11/03 04:41:28;;;;;;;6.68;1.73;;;10.60;99.90;;;10.76;64.01;97149.91;5046256;28;20524;-81
2023/11/03 04:43:55;;;;;;;8.35;1.65;;;10.60;99.90;;;10.65;63.49;97149.31;5072951;28;20037;-81
2023/11/03 04:46:23;;;;;;;8.25;1.42;;;10.60;99.90;;;10.67;63.56;97139.13;5083514;28;20040;-81
2023/11/03 04:48:52;;;;;;;6.65;1.33;;;10.60;99.90;;;10.62;63.95;97151.75;5082949;28;20092;-81
2023/11/03 04:51:20;;;;;;;7.85;1.40;;;10.50;99.90;;;10.66;63.73;97163.41;5084065;28;20063;-81
2023/11/03 04:53:47;;;;;;;7.07;1.33;;;10.50;99.90;;;10.64;64.03;97169.06;5079200;28;20576;-81
2023/11/03 04:56:15;;;;;;;9.00;1.95;;;10.50;99.90;;;10.69;63.79;97166.31;5063789;28;20045;-81
2023/11/03 04:58:44;;;;;;;7.93;1.75;;;10.60;99.90;;;10.60;64.28;97180.59;5065478;28;20428;-81
2023/11/03 05:01:13;;;;;;;11.25;1.90;;;10.50;99.90;;;10.57;64.18;97198.72;5063734;28;20040;-81
2023/11/03 05:03:41;;;;;;;6.32;1.83;;;10.50;99.90;;;10.57;64.61;97192.59;5046516;28;20087;-81
2023/11/03 05:06:09;;;;;;;7.60;1.70;;;10.40;99.90;;;10.61;63.96;97198.16;5064716;28;20049;-81
2023/11/03 05:08:37;;;;;;;9.70;1.88;;;10.50;99.90;;;10.66;64.59;97200.72;5013875;28;20098;-81
2023/11/03 05:11:05;;;;;;;14.05;1.80;;;10.50;99.90;;;10.68;64.16;97198.56;5050957;28;20423;-81
2023/11/03 05:13:32;;;;;;;10.07;1.92;;;10.60;99.90;;;10.73;64.51;97195.81;5083733;28;20103;-81
2023/11/03 05:16:05;;;;;;;9.20;1.73;;;10.60;99.90;;;10.75;64.01;97194.44;5086577;28;20067;-81
2023/11/03 05:18:34;;;;;;;8.98;1.80;;;10.60;99.90;;;10.74;63.78;97189.41;5101586;28;20045;-81
2023/11/03 05:21:02;;;;;;;10.15;1.50;;;10.60;99.90;;;10.64;64.21;97186.88;5085243;28;20052;-81
2023/11/03 05:23:29;;;;;;;8.88;1.80;;;10.60;99.90;;;10.53;64.44;97205.72;5084459;28;20072;-81
2023/11/03 05:25:57;;;;;;;8.48;1.95;;;10.50;99.90;;;10.51;64.79;97207.09;5082608;28;20135;-81
2023/11/03 05:28:25;;;;;;;15.50;2.10;;;10.50;99.90;;;10.51;65.30;97207.09;5081875;28;20055;-81
2023/11/03 05:30:52;;;;;;;9.10;1.77;;;10.50;99.90;;;10.61;65.03;97214.94;5100536;28;20515;-81
2023/11/03 05:33:21;;;;;;;8.57;1.98;;;10.50;99.90;;;10.52;64.71;97212.13;5084400;28;20045;-81
2023/11/03 05:35:49;;;;;;;10.50;1.80;;;10.50;99.90;;;10.60;64.80;97209.91;5066749;28;20040;-81
2023/11/03 05:38:17;;;;;;;11.73;1.98;;;10.50;99.90;;;10.50;65.34;97205.53;5084385;28;20096;-81
2023/11/03 05:40:44;;;;;;;12.65;1.90;;;10.50;99.90;;;10.57;65.04;97208.59;5083702;28;20048;-81
2023/11/03 05:43:12;;;;;;;10.23;1.92;;;10.50;99.90;;;10.61;64.81;97217.59;5099967;28;20511;-81
2023/11/03 05:45:40;;;;;;;10.98;2.25;;;10.50;99.90;;;10.60;64.93;97213.34;5069437;28;20432;-83
2023/11/03 05:48:08;;;;;;;9.43;2.00;;;10.50;99.90;;;10.62;65.36;97216.50;5061321;28;20048;-84
2023/11/03 05:50:37;;;;;;;12.45;2.25;;;10.50;99.90;;;10.72;65.32;97213.66;5060838;28;20041;-84
2023/11/03 05:53:04;;;;;;;9.70;1.80;;;10.60;99.90;;;10.75;64.97;97220.31;5061507;28;20037;-83
2023/11/03 05:55:32;;;;;;;13.23;2.38;;;10.60;99.90;;;10.69;64.92;97216.94;5060502;28;20137;-82
2023/11/03 05:57:59;;;;;;;8.88;1.70;;;10.60;99.90;;;10.68;64.46;97220.66;5060772;28;20037;-82
2023/11/03 06:00:29;;;;;;;10.40;1.77;;;10.60;99.90;;;10.71;65.29;97227.31;5041064;28;23173;-82
2023/11/03 06:02:57;;;;;;;13.13;2.40;;;10.60;99.90;;;10.78;64.81;97231.19;5058653;28;20052;-82
2023/11/03 06:05:24;;;;;;;10.52;2.00;;;10.60;99.90;;;10.79;64.21;97232.75;5061341;28;20048;-82
2023/11/03 06:07:53;;;;;;;9.32;2.35;;;10.60;99.90;;;10.85;64.46;97235.34;5058743;28;20505;-82
2023/11/03 06:10:21;;;;;;;12.32;2.05;;;10.60;99.90;;;10.85;64.14;97257.44;5056144;28;20063;-82
2023/11/03 06:12:49;;;;;;;15.13;1.85;;;10.60;99.90;;;10.69;64.32;97258.78;5059442;28;20063;-84
2023/11/03 06:15:16;;;;;;;7.07;1.80;;;10.60;99.90;;;10.75;64.51;97263.75;5061073;28;20052;-81
2023/11/03 06:17:45;;;;;;;13.30;2.53;;;10.60;99.90;;;10.70;64.35;97255.81;5067268;28;20048;-83
2023/11/03 06:20:14;;;;;;;7.53;1.85;;;10.60;99.90;;;10.68;64.47;97263.31;5089837;28;20075;-83
2023/11/03 06:22:42;;;;;;;15.02;2.50;;;10.50;99.90;;;10.69;64.46;97264.91;5105666;28;20063;-83
2023/11/03 06:25:12;;;;;;;8.93;2.00;;;10.60;99.90;;;10.72;64.31;97277.63;5086177;28;20041;-81
2023/11/03 06:27:39;;;;;;;11.40;2.17;;;10.60;99.90;;;10.63;64.15;97270.59;5104057;28;20048;-82
2023/11/03 06:30:09;;;;;;;12.52;2.17;;;10.50;99.90;;;10.71;64.53;97272.59;5072231;28;20047;-82
2023/11/03 06:32:39;;;;;;;14.93;2.22;;;10.50;99.90;;;10.72;64.52;97280.31;5054311;28;20055;-82
2023/11/03 06:35:07;;;;;;;10.23;1.90;;;10.50;99.90;;;10.77;64.42;97288.22;5068775;28;20503;-82
2023/11/03 06:37:35;;;;;;;8.48;2.15;;;10.60;99.90;;;10.73;64.28;97279.22;5068505;28;20078;-81
2023/11/03 06:40:03;;;;;;;11.05;1.65;;;10.60;99.90;;;10.63;64.42;97287.38;5086288;28;20048;-81
2023/11/03 06:42:32;;;;;;;9.68;1.70;;;10.40;99.90;;;10.58;64.44;97290.13;5069035;28;20045;-83
2023/11/03 06:45:00;;;;;;;8.80;2.03;;;10.50;99.90;;;10.61;64.68;97296.75;5086237;28;20045;-81
2023/11/03 06:47:27;;;;;;;10.00;2.05;;;10.50;99.90;;;10.66;65.05;97286.81;5090121;28;20049;-81
2023/11/03 06:49:55;;;;;;;11.23;2.05;;;10.50;99.90;;;10.58;64.74;97298.91;5088123;28;20048;-82
2023/11/03 06:52:22;;;;;;;9.45;1.98;;;10.50;99.90;;;10.63;64.22;97294.56;5089236;28;20484;-82
2023/11/03 06:54:50;;;;;;;12.63;1.67;;;10.50;99.90;;;10.58;64.68;97311.44;5090322;28;20056;-82
2023/11/03 06:57:17;;;;;;;8.75;2.10;;;10.50;99.90;;;10.58;64.44;97320.22;5039341;28;20053;-82
2023/11/03 06:59:46;;;;;;;7.57;1.45;;;10.50;99.90;;;10.65;64.60;97308.41;5072836;28;20060;-82
2023/11/03 07:02:14;;;;;;;8.95;1.73;;;10.50;99.90;;;10.69;64.91;97320.09;5090973;28;20041;-82
2023/11/03 07:04:43;;;;;;;12.23;2.13;;;10.50;99.90;;;10.73;64.51;97313.06;5089673;28;20052;-82
2023/11/03 07:07:11;;;;;;;8.90;1.90;;;10.50;99.90;;;10.74;64.74;97320.81;5089581;28;20067;-82
2023/11/03 07:09:39;;;;;;;7.85;2.10;;;10.60;99.90;;;10.78;64.35;97308.47;5073451;28;20143;-82
2023/11/03 07:12:07;;;;;;;8.85;1.98;;;10.60;99.90;;;10.66;64.62;97310.78;5090925;28;20037;-82
2023/11/03 07:14:35;;;;;;;9.50;1.88;;;10.50;99.90;;;10.70;64.90;97314.47;5090717;28;20451;-82
2023/11/03 07:17:05;;;;;;;9.32;1.73;;;10.60;99.90;;;10.63;64.78;97319.34;5055645;28;20104;-82
2023/11/03 07:19:33;;;;;;;10.15;2.10;;;10.50;99.90;;;10.73;65.50;97308.53;5107022;28;20048;-81
2023/11/03 07:22:00;;;;;;;7.25;1.70;;;10.60;99.90;;;10.75;65.16;97303.72;5072183;28;20049;-81
2023/11/03 07:24:28;;;;;;;11.32;2.03;;;10.60;99.90;;;10.77;64.97;97311.41;5070039;28;20049;-81
2023/11/03 07:26:55;;;;;;;10.85;1.90;;;10.60;99.90;;;10.86;64.98;97315.00;5069298;28;20041;-81
2023/11/03 07:29:23;;;;;;;9.82;2.17;;;10.70;99.90;;;10.85;64.63;97312.66;5069092;28;20492;-81
2023/11/03 07:31:51;;;;;;;7.20;1.85;;;10.70;99.90;;;10.88;65.24;97314.72;5056803;28;20044;-81
2023/11/03 07:34:20;;;;;;;13.70;2.22;;;10.80;99.90;;;10.97;65.05;97318.31;5086427;28;20108;-81
2023/11/03 07:36:48;;;;;;;11.63;2.25;;;10.80;99.90;;;11.00;65.41;97317.72;5084230;28;20048;-82
2023/11/03 07:39:15;;;;;;;14.20;2.45;;;10.80;99.90;;;10.87;64.99;97323.81;5090956;28;20047;-81
2023/11/03 07:41:43;;;;;;;10.35;2.22;;;10.80;99.90;;;10.88;65.60;97317.38;5091639;28;20141;-81
2023/11/03 07:44:12;;;;;;;14.38;2.00;;;10.80;99.90;;;10.93;65.82;97328.78;5108465;28;20043;-82
2023/11/03 07:46:40;;;;;;;8.40;1.83;;;10.80;99.90;;;10.85;65.37;97323.31;5005942;28;20397;-82
2023/11/03 07:49:07;;;;;;;10.70;2.13;;;10.80;99.90;;;10.85;65.74;97320.66;5070599;28;20045;-81
2023/11/03 07:51:36;;;;;;;8.20;1.88;;;10.80;99.90;;;10.93;66.11;97327.97;5071547;28;20045;-81
2023/11/03 07:54:05;;;;;;;11.70;1.80;;;10.80;99.90;;;10.97;65.93;97321.75;5071263;28;20048;-81
2023/11/03 07:56:34;;;;;;;7.90;1.73;;;10.90;99.90;;;10.98;65.39;97325.22;5070087;28;20041;-82
2023/11/03 07:59:02;;;;;;;9.63;2.00;;;10.90;99.90;;;10.97;66.19;97326.31;5072029;28;20049;-82
2023/11/03 08:01:29;;;;;;;12.15;2.33;;;10.90;99.90;;;10.98;65.92;97320.69;5071857;28;20052;-82
2023/11/03 08:03:57;;;;;;;10.45;2.15;;;10.90;99.90;;;11.00;65.94;97325.75;5085254;28;20033;-82
2023/11/03 08:06:25;;;;;;;10.00;1.95;;;10.90;99.90;;;10.99;65.43;97329.50;5087088;28;20041;-81
2023/11/03 08:08:55;;;;;;;14.52;2.50;;;11.00;99.90;;;10.99;65.35;97332.94;5079411;28;20051;-81
2023/11/03 08:11:23;;;;;;;7.43;1.45;;;10.90;99.90;;;10.95;65.63;97339.16;5070356;28;20052;-81
2023/11/03 08:13:50;;;;;;;10.48;1.98;;;10.90;99.90;;;10.97;65.19;97344.97;5086228;28;20044;-81
2023/11/03 08:16:18;;;;;;;12.07;2.13;;;11.00;99.90;;;11.00;65.20;97349.72;5087807;28;20047;-81
2023/11/03 08:18:46;;;;;;;11.90;1.98;;;11.00;99.90;;;11.01;65.21;97351.31;5086893;28;20504;-81
2023/11/03 08:21:13;;;;;;;8.93;1.88;;;11.00;99.90;;;11.00;64.53;97363.06;5086502;28;20040;-81
2023/11/03 08:23:41;;;;;;;8.93;1.70;;;11.00;99.90;;;11.01;64.24;97364.66;5068586;28;20507;-83
2023/11/03 08:26:11;;;;;;;7.30;1.58;;;11.00;99.90;;;10.91;64.01;97362.94;5081788;28;20099;-81
2023/11/03 08:28:39;;;;;;;10.20;2.20;;;11.00;99.90;;;10.99;64.77;97375.63;5066273;28;20055;-81
2023/11/03 08:31:07;;;;;;;8.52;1.75;;;11.00;99.90;;;11.01;64.40;97375.31;5079844;28;20068;-81
2023/11/03 08:33:34;;;;;;;10.07;1.63;;;11.00;99.90;;;11.01;64.80;97372.66;5064396;28;20059;-80
2023/11/03 08:36:02;;;;;;;9.00;1.80;;;11.00;99.90;;;11.08;63.67;97386.41;5049794;28;20048;-80
2023/11/03 08:38:31;;;;;;;10.95;1.60;;;11.10;99.90;;;11.15;65.07;97386.81;5066473;28;20140;-80
2023/11/03 08:40:59;;;;;;;13.00;2.25;;;11.10;99.90;;;11.16;64.32;97392.94;5083960;28;20079;-80
2023/11/03 08:43:29;;;;;;;10.40;2.63;;;11.10;99.90;;;11.14;63.96;97397.78;5086150;28;20055;-80
2023/11/03 08:45:56;;;;;;;11.65;1.80;;;11.10;99.90;;;11.12;64.24;97391.94;5066167;28;20049;-80
2023/11/03 08:48:25;;;;;;;12.07;1.73;;;11.20;99.90;;;11.12;64.19;97408.75;5087041;28;20052;-80
2023/11/03 08:50:52;;;;;;;8.23;2.08;;;11.10;99.90;;;11.09;64.33;97407.47;5034650;28;20056;-80
2023/11/03 08:53:24;;;;;;;12.50;1.80;;;11.10;99.90;;;11.13;65.07;97418.34;5069347;28;20052;-80
2023/11/03 08:55:52;;;;;;;12.68;1.98;;;11.20;99.90;;;11.02;64.84;97423.00;5088231;28;20094;-80
2023/11/03 08:58:20;;;;;;;9.50;1.90;;;11.10;99.90;;;11.02;64.67;97427.56;5069473;28;20045;-80
2023/11/03 09:00:54;;;;;;;8.27;1.95;;;11.10;99.90;;;11.08;65.16;97437.09;5063599;28;20098;-80
2023/11/03 09:03:22;;;;;;;15.20;2.15;;;11.10;99.90;;;11.04;64.72;97428.88;5047397;28;20051;-80
2023/11/03 09:05:50;;;;;;;6.53;1.75;;;11.10;99.90;;;10.91;64.69;97439.47;5061836;28;20414;-80
2023/11/03 09:08:17;;;;;;;10.98;2.03;;;11.00;99.90;;;10.90;64.94;97448.53;5084849;28;20052;-81
2023/11/03 09:10:45;;;;;;;7.82;2.00;;;11.00;99.90;;;10.90;65.52;97465.31;5035092;28;20048;-81
2023/11/03 09:13:13;;;;;;;5.82;1.90;;;11.00;99.90;;;10.99;64.74;97465.47;5083515;28;20079;-81
2023/11/03 09:15:40;;;;;;;8.40;2.20;;;11.00;99.90;;;11.05;65.09;97481.13;5065626;28;20504;-80
2023/11/03 09:18:11;;;;;;;9.55;1.60;;;11.10;99.90;;;11.06;65.09;97476.56;5083476;28;20044;-80
2023/11/03 09:20:38;;;;;;;10.00;2.20;;;11.10;99.90;;;11.13;65.21;97486.91;5084061;28;20481;-81
2023/11/03 09:23:06;;;;;;;7.30;1.58;;;11.10;99.90;;;11.13;65.21;97508.25;5068020;28;20165;-81
2023/11/03 09:25:37;;;;;;;8.95;1.80;;;11.10;99.90;;;11.13;65.22;97514.38;5078427;28;20053;-81
2023/11/03 09:28:05;;;;;;;7.53;1.80;;;11.10;99.90;;;11.18;65.12;97521.50;5084773;28;20120;-81
2023/11/03 09:30:32;;;;;;;15.27;2.60;;;11.20;99.90;;;11.12;64.90;97520.75;5080768;28;20475;-81
2023/11/03 09:33:00;;;;;;;10.15;2.00;;;11.10;99.90;;;10.99;65.18;97524.94;5081204;28;20048;-80
2023/11/03 09:35:30;;;;;;;9.85;2.10;;;11.10;99.90;;;11.03;65.29;97530.50;5080164;28;20096;-81
2023/11/03 09:37:57;;;;;;;19.35;2.10;;;11.10;99.90;;;11.06;65.34;97545.91;5080279;28;20131;-83
2023/11/03 09:40:25;;;;;;;10.32;2.40;;;11.00;99.90;;;11.13;65.24;97551.72;5080197;28;20041;-84
2023/11/03 09:42:53;;;;;;;8.60;1.90;;;11.10;99.90;;;11.12;65.51;97552.75;5078792;28;20132;-83
2023/11/03 09:45:26;;;;;;;9.25;2.50;;;11.10;99.90;;;11.19;65.49;97553.22;5080113;28;20043;-84
2023/11/03 09:47:56;;;;;;;9.02;2.00;;;11.10;99.90;;;11.09;65.35;97556.81;5076886;28;20040;-83
2023/11/03 09:50:24;;;;;;;13.90;2.20;;;11.10;99.90;;;11.03;65.46;97552.63;5059375;28;20098;-83
2023/11/03 09:52:59;;;;;;;9.82;2.35;;;11.10;99.90;;;11.05;65.40;97555.00;5024463;28;20049;-83
2023/11/03 09:55:30;;;;;;;12.73;2.45;;;11.10;99.90;;;11.05;64.75;97563.00;5040319;28;20056;-83
2023/11/03 09:58:01;;;;;;;9.88;2.22;;;11.10;99.90;;;11.11;65.47;97556.50;5069718;28;20415;-85
2023/11/03 10:00:30;;;;;;;10.90;1.90;;;11.10;99.90;;;11.18;65.47;97553.50;5076974;28;20032;-85
2023/11/03 10:02:58;;;;;;;9.95;1.88;;;11.10;99.90;;;11.25;65.39;97559.28;5092524;28;20058;-85
2023/11/03 10:05:29;;;;;;;11.85;2.33;;;11.20;99.90;;;11.30;65.04;97557.34;5077264;28;20049;-84
2023/11/03 10:08:02;;;;;;;16.17;3.20;;;11.30;99.90;;;11.34;64.95;97550.34;5054254;28;20507;-84
2023/11/03 10:10:30;;;;;;;11.82;2.00;;;11.30;99.90;;;11.38;65.40;97555.91;5097869;28;20083;-84
2023/11/03 10:12:59;;;;;;;16.77;2.33;;;11.40;99.90;;;11.43;65.15;97533.69;5081503;28;20119;-84
2023/11/03 10:15:27;;;;;;;10.60;2.38;;;11.50;99.90;;;11.43;64.43;97549.72;5079581;28;20131;-83
2023/11/03 10:17:56;;;;;;;13.20;2.22;;;11.60;99.90;;;11.47;64.24;97551.50;5064279;28;20044;-84
2023/11/03 10:20:24;;;;;;;10.75;2.40;;;11.60;99.90;;;11.53;64.39;97550.34;5079687;28;20134;-83
2023/11/03 10:22:52;;;;;;;15.10;2.47;;;11.60;99.90;;;11.58;64.57;97547.59;5100133;28;20048;-84